Time;durP1;ratioP1;P1;durP2;ratioP2;P2;SDS_P1;SDS_P2;PMS_P1;PMS_P2;Temp;Humidity;BMP_temperature;BMP_pressure;BME280_temperature;BME280_humidity;BME280_pressure;Samples;Min_cycle;Max_cycle;Signal;HPM_P1;HPM_P2
2022/03/05 00:00:48;;;;;;;172.20;85.20;;;5.90;92.00;;;;;;5072727;28;20063;-57
2022/03/05 00:03:14;;;;;;;163.63;85.38;;;6.00;91.80;;;;;;5072518;28;20048;-60
2022/03/05 00:05:40;;;;;;;146.68;75.15;;;5.90;93.30;;;;;;5072764;28;20028;-62
2022/03/05 00:08:07;;;;;;;152.70;75.03;;;5.90;94.20;;;;;;5072770;28;20413;-59
2022/03/05 00:10:33;;;;;;;129.65;68.40;;;5.90;94.40;;;;;;5072870;28;20033;-52
2022/03/05 00:12:59;;;;;;;125.63;64.65;;;5.90;94.30;;;;;;5072585;28;20027;-61
2022/03/05 00:15:26;;;;;;;147.93;75.82;;;5.90;94.10;;;;;;5072654;28;20021;-59
2022/03/05 00:17:53;;;;;;;138.30;71.85;;;5.90;93.60;;;;;;5072393;28;20032;-55
2022/03/05 00:20:19;;;;;;;174.93;90.35;;;5.80;94.60;;;;;;5072618;28;20073;-57
2022/03/05 00:22:46;;;;;;;164.50;83.35;;;5.90;94.10;;;;;;5072688;28;20043;-61
2022/03/05 00:25:12;;;;;;;162.32;84.78;;;5.80;93.60;;;;;;5072727;28;20429;-59
2022/03/05 00:27:39;;;;;;;178.30;92.38;;;5.80;93.70;;;;;;5072395;28;20025;-58
2022/03/05 00:30:05;;;;;;;147.10;80.28;;;5.80;93.70;;;;;;5072474;28;20035;-61
2022/03/05 00:32:31;;;;;;;159.10;82.88;;;5.70;93.10;;;;;;5074517;28;20021;-59
2022/03/05 00:34:57;;;;;;;141.23;74.40;;;5.70;93.50;;;;;;5075986;28;20055;-55
2022/03/05 00:37:23;;;;;;;135.90;70.78;;;5.70;93.50;;;;;;5076260;28;20455;-62
2022/03/05 00:39:48;;;;;;;137.25;71.03;;;5.70;93.80;;;;;;5075940;28;20024;-61
2022/03/05 00:42:14;;;;;;;140.25;77.63;;;5.80;92.60;;;;;;5075793;28;20092;-55
2022/03/05 00:44:40;;;;;;;181.18;93.68;;;5.80;92.10;;;;;;5075932;28;20021;-59
2022/03/05 00:47:06;;;;;;;153.38;79.65;;;5.80;92.10;;;;;;5075536;28;20446;-52
2022/03/05 00:49:32;;;;;;;201.25;99.78;;;5.70;93.10;;;;;;5075695;28;20070;-56
2022/03/05 00:51:58;;;;;;;149.32;79.65;;;5.60;93.20;;;;;;5075740;28;20012;-59
2022/03/05 00:54:24;;;;;;;179.07;94.95;;;5.60;93.20;;;;;;5075789;28;20021;-61
2022/03/05 00:56:50;;;;;;;176.95;92.80;;;5.70;92.60;;;;;;5075571;28;20054;-62
2022/03/05 00:59:15;;;;;;;187.38;96.65;;;5.70;92.70;;;;;;5075853;28;20032;-60
2022/03/05 01:01:41;;;;;;;209.68;105.53;;;5.70;92.30;;;;;;5075377;28;20024;-59
2022/03/05 01:04:07;;;;;;;157.57;81.72;;;5.70;92.10;;;;;;5075639;28;20463;-58
2022/03/05 01:06:33;;;;;;;164.98;87.07;;;5.80;92.10;;;;;;5075548;28;20040;-60
2022/03/05 01:09:03;;;;;;;152.52;80.35;;;5.80;92.20;;;;;;5075448;28;20052;-59
2022/03/05 01:11:29;;;;;;;135.32;68.72;;;5.70;92.10;;;;;;5075293;28;20363;-58
2022/03/05 01:13:55;;;;;;;133.20;69.50;;;5.80;92.10;;;;;;5075471;28;20032;-58
2022/03/05 01:16:21;;;;;;;148.70;76.97;;;5.80;92.10;;;;;;5075027;28;20040;-58
2022/03/05 01:18:47;;;;;;;157.40;79.07;;;5.80;92.30;;;;;;5075489;28;20026;-62
2022/03/05 01:21:13;;;;;;;127.60;66.00;;;5.80;92.50;;;;;;5075159;28;20057;-56
2022/03/05 01:23:39;;;;;;;134.18;70.07;;;5.80;92.50;;;;;;5075343;28;20044;-57
2022/03/05 01:26:04;;;;;;;137.40;70.00;;;5.80;92.90;;;;;;5074987;28;20060;-61
2022/03/05 01:28:30;;;;;;;153.70;78.72;;;5.70;93.10;;;;;;5074973;28;20095;-60
2022/03/05 01:30:56;;;;;;;251.65;126.00;;;5.80;93.20;;;;;;5075092;28;20078;-58
2022/03/05 01:33:22;;;;;;;238.43;120.32;;;5.80;93.60;;;;;;5075040;28;20020;-60
2022/03/05 01:35:48;;;;;;;222.45;113.22;;;5.50;95.30;;;;;;5074665;28;20128;-57
2022/03/05 01:38:15;;;;;;;188.05;99.95;;;5.30;96.30;;;;;;5074883;28;20545;-59
2022/03/05 01:40:41;;;;;;;163.52;85.57;;;5.30;96.80;;;;;;5074889;28;20070;-52
2022/03/05 01:43:08;;;;;;;159.13;84.50;;;5.40;97.50;;;;;;5074259;28;20047;-60
2022/03/05 01:45:34;;;;;;;162.77;83.35;;;5.40;96.90;;;;;;5074563;28;20032;-58
2022/03/05 01:48:01;;;;;;;224.82;113.53;;;5.40;96.70;;;;;;5074563;28;20025;-60
2022/03/05 01:50:28;;;;;;;217.73;110.70;;;5.40;97.30;;;;;;5074745;28;20093;-59
2022/03/05 01:52:54;;;;;;;236.43;123.75;;;5.20;98.80;;;;;;5074557;28;20029;-56
2022/03/05 01:55:20;;;;;;;242.68;123.90;;;5.00;99.90;;;;;;5074517;28;20028;-57
2022/03/05 01:57:46;;;;;;;219.82;114.00;;;4.80;99.90;;;;;;5074450;28;20410;-58
2022/03/05 02:00:13;;;;;;;254.25;128.82;;;4.60;99.90;;;;;;5074118;28;20029;-58
2022/03/05 02:02:40;;;;;;;253.77;126.82;;;4.50;99.90;;;;;;5074345;28;20044;-62
2022/03/05 02:05:06;;;;;;;244.18;125.75;;;4.50;99.90;;;;;;5074329;28;20615;-63
2022/03/05 02:07:32;;;;;;;219.52;112.93;;;4.60;99.90;;;;;;5074136;28;20025;-57
2022/03/05 02:09:58;;;;;;;220.68;117.90;;;4.60;99.90;;;;;;5074314;28;20070;-59
2022/03/05 02:12:28;;;;;;;219.90;116.72;;;4.60;99.90;;;;;;5074220;28;20020;-56
2022/03/05 02:14:54;;;;;;;221.27;118.88;;;4.60;99.90;;;;;;5073856;28;20055;-56
2022/03/05 02:17:20;;;;;;;216.60;115.45;;;4.50;99.90;;;;;;5074283;28;20048;-58
2022/03/05 02:19:45;;;;;;;202.00;106.18;;;4.30;99.90;;;;;;5074076;28;20039;-58
2022/03/05 02:22:11;;;;;;;181.45;97.50;;;4.20;99.90;;;;;;5073920;28;20016;-57
2022/03/05 02:24:38;;;;;;;169.10;89.78;;;4.30;99.90;;;;;;5074179;28;20034;-58
2022/03/05 02:27:05;;;;;;;164.88;84.97;;;4.50;99.90;;;;;;5074094;28;20028;-60
2022/03/05 02:29:32;;;;;;;181.95;93.13;;;4.70;99.90;;;;;;5073579;28;20087;-58
2022/03/05 02:31:58;;;;;;;171.15;93.00;;;4.70;99.90;;;;;;5073810;28;20051;-61
2022/03/05 02:34:24;;;;;;;177.77;90.78;;;4.60;99.90;;;;;;5073783;28;20056;-61
2022/03/05 02:36:50;;;;;;;165.60;89.60;;;4.50;99.90;;;;;;5073384;28;20128;-59
2022/03/05 02:39:16;;;;;;;163.80;88.35;;;4.40;99.90;;;;;;5073790;28;20063;-60
2022/03/05 02:41:42;;;;;;;270.05;131.98;;;4.60;99.90;;;;;;5073468;28;20020;-59
2022/03/05 02:44:09;;;;;;;228.98;111.53;;;4.70;99.90;;;;;;5073486;28;20028;-57
2022/03/05 02:46:35;;;;;;;189.68;101.32;;;4.60;99.90;;;;;;5073482;28;20031;-59
2022/03/05 02:49:03;;;;;;;205.73;106.43;;;4.50;99.90;;;;;;5073547;28;20028;-61
2022/03/05 02:51:29;;;;;;;187.02;94.88;;;4.40;99.90;;;;;;5073498;28;20025;-56
2022/03/05 02:53:55;;;;;;;239.75;119.93;;;4.50;99.90;;;;;;5072876;28;20030;-60
2022/03/05 02:56:21;;;;;;;210.85;103.35;;;4.50;99.90;;;;;;5073338;28;20478;-58
2022/03/05 02:58:47;;;;;;;170.40;86.47;;;4.40;99.90;;;;;;5073709;28;20378;-61
2022/03/05 03:01:13;;;;;;;165.73;85.10;;;4.40;99.90;;;;;;5073326;28;20020;-60
2022/03/05 03:03:39;;;;;;;155.70;81.97;;;4.50;99.90;;;;;;5055436;28;20035;-62
2022/03/05 03:06:06;;;;;;;136.73;72.65;;;4.50;99.90;;;;;;5073250;28;20021;-57
2022/03/05 03:08:31;;;;;;;148.05;77.80;;;4.60;99.90;;;;;;5073278;28;20032;-57
2022/03/05 03:10:58;;;;;;;187.13;92.38;;;4.70;99.90;;;;;;5073106;28;20016;-56
2022/03/05 03:13:24;;;;;;;194.82;99.53;;;4.70;99.90;;;;;;5073376;28;20504;-57
2022/03/05 03:15:50;;;;;;;208.40;106.82;;;4.60;99.90;;;;;;5073167;28;20489;-58
2022/03/05 03:18:17;;;;;;;182.77;97.15;;;4.40;99.90;;;;;;5073253;28;20095;-57
2022/03/05 03:20:43;;;;;;;180.75;95.75;;;4.00;99.90;;;;;;5073211;28;20103;-61
2022/03/05 03:23:09;;;;;;;219.70;118.15;;;3.70;99.90;;;;;;5073090;28;20024;-55
2022/03/05 03:25:38;;;;;;;222.57;115.57;;;3.60;99.90;;;;;;5073299;28;20379;-57
2022/03/05 03:28:04;;;;;;;214.65;115.22;;;3.50;99.90;;;;;;5073164;28;20039;-60
2022/03/05 03:30:30;;;;;;;207.02;108.38;;;3.40;99.90;;;;;;5073290;28;20371;-55
2022/03/05 03:32:56;;;;;;;236.57;120.90;;;3.30;99.90;;;;;;5073201;28;20028;-56
2022/03/05 03:35:22;;;;;;;215.02;113.60;;;3.30;99.90;;;;;;5072991;28;20098;-57
2022/03/05 03:37:48;;;;;;;242.20;131.90;;;3.20;99.90;;;;;;5072957;28;20125;-58
2022/03/05 03:40:15;;;;;;;219.30;114.90;;;3.10;99.90;;;;;;5072864;28;20096;-63
2022/03/05 03:42:43;;;;;;;225.35;120.50;;;2.90;99.90;;;;;;5073033;28;20378;-59
2022/03/05 03:45:10;;;;;;;220.48;115.78;;;2.90;99.90;;;;;;5073138;28;20032;-56
2022/03/05 03:47:37;;;;;;;216.27;112.63;;;2.80;99.90;;;;;;5072815;28;20124;-59
2022/03/05 03:50:05;;;;;;;211.55;110.45;;;2.60;99.90;;;;;;5072936;28;20103;-56
2022/03/05 03:52:31;;;;;;;206.10;109.28;;;2.70;99.90;;;;;;5072907;28;20021;-61
2022/03/05 03:54:57;;;;;;;198.60;104.03;;;2.60;99.90;;;;;;5072643;28;20032;-64
2022/03/05 03:57:22;;;;;;;201.60;106.28;;;2.60;99.90;;;;;;5072822;28;20029;-57
2022/03/05 03:59:51;;;;;;;197.00;100.20;;;2.50;99.90;;;;;;5072870;28;20028;-57
2022/03/05 04:02:20;;;;;;;183.60;94.45;;;2.50;99.90;;;;;;5072744;28;20548;-59
2022/03/05 04:04:47;;;;;;;202.38;102.63;;;2.50;99.90;;;;;;5072813;28;20052;-58
2022/03/05 04:09:57;;;;;;;;;;;2.50;99.90;;;;;;5076920;28;20040;-57
2022/03/05 04:12:22;;;;;;;172.30;90.53;;;2.60;99.90;;;;;;5076697;28;20266;-63
2022/03/05 04:14:48;;;;;;;168.25;85.28;;;2.70;99.90;;;;;;5076315;28;20494;-55
2022/03/05 04:17:15;;;;;;;195.60;102.05;;;2.80;99.90;;;;;;5076349;28;20024;-59
2022/03/05 04:19:41;;;;;;;168.32;90.32;;;2.80;99.90;;;;;;5076410;28;20021;-56
2022/03/05 04:22:07;;;;;;;141.18;75.43;;;2.80;99.90;;;;;;5076196;28;20045;-58
2022/03/05 04:24:33;;;;;;;134.73;71.30;;;2.90;99.90;;;;;;5076064;28;20020;-60
2022/03/05 04:26:59;;;;;;;125.18;66.80;;;3.10;99.90;;;;;;5076088;28;20372;-58
2022/03/05 04:29:25;;;;;;;140.38;73.38;;;3.30;99.90;;;;;;5076089;28;20098;-61
2022/03/05 04:31:51;;;;;;;159.25;83.68;;;3.40;99.90;;;;;;5076073;28;20024;-57
2022/03/05 04:34:17;;;;;;;161.98;86.45;;;3.40;99.90;;;;;;5076164;28;20029;-59
2022/03/05 04:36:43;;;;;;;177.57;95.55;;;3.40;99.90;;;;;;5075708;28;20033;-62
2022/03/05 04:39:09;;;;;;;170.88;93.43;;;3.20;99.90;;;;;;5075789;28;20024;-62
2022/03/05 04:41:35;;;;;;;159.50;85.15;;;3.00;99.90;;;;;;5076007;28;20017;-62
2022/03/05 04:44:00;;;;;;;148.02;79.50;;;3.00;99.90;;;;;;5075911;28;20021;-56
2022/03/05 04:46:26;;;;;;;137.05;73.68;;;3.00;99.90;;;;;;5075660;28;20032;-61
2022/03/05 04:48:53;;;;;;;121.45;67.13;;;3.20;99.90;;;;;;5075902;28;20032;-59
2022/03/05 04:51:18;;;;;;;126.45;71.22;;;3.30;99.90;;;;;;5075839;28;20027;-59
2022/03/05 04:53:44;;;;;;;141.13;79.10;;;3.40;99.90;;;;;;5075505;28;20020;-60
2022/03/05 04:56:10;;;;;;;136.68;75.15;;;3.60;99.90;;;;;;5075800;28;20035;-63
2022/03/05 04:58:35;;;;;;;131.23;70.97;;;3.60;99.90;;;;;;5075719;28;20401;-56
2022/03/05 05:01:02;;;;;;;136.50;70.28;;;3.70;99.90;;;;;;5075575;28;20025;-59
2022/03/05 05:03:28;;;;;;;120.40;65.57;;;3.70;99.90;;;;;;5075532;28;20029;-57
2022/03/05 05:05:53;;;;;;;139.57;74.13;;;3.70;99.90;;;;;;5057503;28;20028;-56
2022/03/05 05:08:19;;;;;;;111.93;62.03;;;3.80;99.90;;;;;;5075153;28;20107;-59
2022/03/05 05:10:45;;;;;;;106.95;60.13;;;3.80;99.90;;;;;;5075350;28;20073;-59
2022/03/05 05:13:11;;;;;;;102.40;55.75;;;3.80;99.90;;;;;;5075626;28;20128;-56
2022/03/05 05:15:36;;;;;;;108.60;59.45;;;3.80;99.90;;;;;;5075336;28;20104;-56
2022/03/05 05:18:02;;;;;;;100.72;57.95;;;3.90;99.90;;;;;;5074289;28;20025;-61
2022/03/05 05:20:30;;;;;;;124.50;66.80;;;4.00;99.90;;;;;;5075523;28;20094;-58
2022/03/05 05:22:56;;;;;;;138.13;75.25;;;3.90;99.90;;;;;;5074979;28;20028;-57
2022/03/05 05:25:22;;;;;;;109.65;62.55;;;3.90;99.90;;;;;;5075023;28;20471;-56
2022/03/05 05:27:47;;;;;;;105.22;57.70;;;3.90;99.90;;;;;;5075183;28;20031;-59
2022/03/05 05:30:13;;;;;;;94.38;52.92;;;3.80;99.90;;;;;;5075068;28;20386;-58
2022/03/05 05:32:39;;;;;;;125.63;67.18;;;3.80;99.90;;;;;;5074865;28;20024;-58
2022/03/05 05:35:05;;;;;;;194.20;98.68;;;3.90;99.90;;;;;;5074722;28;20044;-59
2022/03/05 05:37:31;;;;;;;381.10;197.18;;;3.80;99.90;;;;;;5074844;28;20040;-64
2022/03/05 05:39:57;;;;;;;364.77;177.25;;;3.60;99.90;;;;;;5074694;28;20020;-64
2022/03/05 05:42:23;;;;;;;381.52;168.63;;;3.30;99.90;;;;;;5075107;28;20028;-58
2022/03/05 05:44:49;;;;;;;347.80;159.95;;;3.10;99.90;;;;;;5074969;28;20355;-61
2022/03/05 05:47:15;;;;;;;334.27;161.85;;;3.00;99.90;;;;;;5074477;28;20086;-61
2022/03/05 05:49:41;;;;;;;364.45;179.02;;;3.00;99.90;;;;;;5074927;28;20382;-63
2022/03/05 05:52:07;;;;;;;337.50;167.73;;;2.90;99.90;;;;;;5074739;28;20074;-62
2022/03/05 05:54:33;;;;;;;436.65;218.45;;;2.80;99.90;;;;;;5074810;28;20382;-61
2022/03/05 05:56:58;;;;;;;373.63;212.60;;;2.80;99.90;;;;;;5074375;28;20021;-63
2022/03/05 05:59:24;;;;;;;272.98;150.52;;;2.70;99.90;;;;;;5074453;28;20017;-58
2022/03/05 06:01:50;;;;;;;229.90;122.10;;;2.70;99.90;;;;;;5074602;28;20025;-63
2022/03/05 06:04:16;;;;;;;194.30;107.82;;;2.80;99.90;;;;;;5074315;28;20410;-61
2022/03/05 06:06:41;;;;;;;199.55;106.55;;;2.90;99.90;;;;;;5074055;28;20027;-60
2022/03/05 06:09:07;;;;;;;190.57;101.85;;;3.00;99.90;;;;;;5074278;28;20028;-57
2022/03/05 06:11:34;;;;;;;228.90;117.88;;;3.10;99.90;;;;;;5074137;28;20051;-60
2022/03/05 06:13:59;;;;;;;255.75;122.68;;;3.20;99.90;;;;;;5074163;28;20027;-58
2022/03/05 06:16:25;;;;;;;359.95;176.82;;;3.20;99.90;;;;;;5074085;28;20471;-57
2022/03/05 06:18:51;;;;;;;363.23;191.48;;;3.20;99.90;;;;;;5073986;28;20020;-59
2022/03/05 06:21:17;;;;;;;336.88;181.25;;;3.20;99.90;;;;;;5073859;28;20012;-62
2022/03/05 06:23:43;;;;;;;287.25;148.13;;;3.20;99.90;;;;;;5074078;28;20033;-61
2022/03/05 06:26:09;;;;;;;418.95;204.85;;;3.40;99.90;;;;;;5073834;28;20482;-63
2022/03/05 06:28:35;;;;;;;400.05;196.88;;;3.50;99.90;;;;;;5073788;28;20102;-57
2022/03/05 06:31:00;;;;;;;400.73;201.63;;;3.50;99.90;;;;;;5073792;28;20428;-59
2022/03/05 06:33:26;;;;;;;395.58;201.05;;;3.50;99.90;;;;;;5073815;28;20020;-56
2022/03/05 06:35:52;;;;;;;347.40;185.15;;;3.40;99.90;;;;;;5073248;28;20398;-57
2022/03/05 06:38:18;;;;;;;265.45;142.52;;;3.20;99.90;;;;;;5073802;28;20107;-60
2022/03/05 06:40:44;;;;;;;225.27;125.15;;;3.40;99.90;;;;;;5073627;28;20104;-61
2022/03/05 06:43:11;;;;;;;228.27;125.00;;;3.80;99.90;;;;;;5073587;28;20016;-59
2022/03/05 06:45:36;;;;;;;197.45;111.88;;;4.00;99.90;;;;;;5073715;28;20394;-57
2022/03/05 06:48:03;;;;;;;176.05;100.72;;;4.10;99.90;;;;;;5073527;28;20020;-60
2022/03/05 06:50:29;;;;;;;170.88;97.25;;;4.30;99.90;;;;;;5073266;28;20029;-62
2022/03/05 06:52:54;;;;;;;173.82;98.38;;;5.10;99.90;;;;;;5073543;28;20104;-56
2022/03/05 06:55:20;;;;;;;154.25;90.50;;;6.20;98.50;;;;;;5073554;28;20494;-62
2022/03/05 06:57:46;;;;;;;143.02;84.65;;;7.20;91.90;;;;;;5073367;28;20097;-55
2022/03/05 07:00:14;;;;;;;155.88;88.40;;;6.90;85.10;;;;;;5073375;28;20047;-55
2022/03/05 07:02:41;;;;;;;178.77;95.00;;;6.60;87.90;;;;;;5073464;28;20383;-54
2022/03/05 07:05:08;;;;;;;315.45;161.25;;;6.50;88.30;;;;;;5073072;28;20017;-57
2022/03/05 07:07:34;;;;;;;353.33;174.35;;;6.60;88.30;;;;;;5073245;28;20040;-59
2022/03/05 07:10:00;;;;;;;377.02;204.68;;;6.40;88.10;;;;;;5073258;28;20070;-61
2022/03/05 07:12:25;;;;;;;353.08;191.55;;;6.00;91.30;;;;;;5073194;28;20024;-63
2022/03/05 07:14:51;;;;;;;286.58;162.40;;;6.90;90.80;;;;;;5073218;28;20044;-59
2022/03/05 07:17:18;;;;;;;253.27;139.98;;;8.30;85.00;;;;;;5073043;28;20032;-63
2022/03/05 07:19:44;;;;;;;218.68;127.82;;;9.60;77.00;;;;;;5073253;28;20383;-60
2022/03/05 07:22:10;;;;;;;216.50;121.82;;;10.40;70.10;;;;;;5073076;28;20016;-60
2022/03/05 07:24:35;;;;;;;194.75;115.32;;;11.40;65.60;;;;;;5073177;28;20052;-62
2022/03/05 07:27:01;;;;;;;205.07;117.03;;;12.30;61.70;;;;;;5073076;28;20082;-61
2022/03/05 07:29:27;;;;;;;174.25;104.85;;;12.90;58.40;;;;;;5073051;28;20028;-59
2022/03/05 07:31:53;;;;;;;150.63;94.15;;;13.10;57.40;;;;;;5072915;28;20024;-60
2022/03/05 07:34:19;;;;;;;140.68;87.72;;;13.50;55.20;;;;;;5072991;28;20485;-56
2022/03/05 07:36:45;;;;;;;126.10;82.13;;;13.50;53.30;;;;;;5072757;28;20045;-60
2022/03/05 07:39:10;;;;;;;124.32;76.60;;;13.50;53.00;;;;;;5073181;28;20051;-58
2022/03/05 07:41:37;;;;;;;107.45;69.70;;;14.30;52.50;;;;;;5075816;28;20029;-58
2022/03/05 07:44:06;;;;;;;98.25;61.92;;;15.00;51.00;;;;;;5077009;28;20381;-61
2022/03/05 07:46:34;;;;;;;91.40;57.95;;;15.60;48.70;;;;;;5076798;28;20119;-61
2022/03/05 07:49:00;;;;;;;84.60;54.63;;;15.40;46.60;;;;;;5077033;28;20013;-60
2022/03/05 07:51:26;;;;;;;80.68;55.83;;;15.90;47.20;;;;;;5076844;28;20036;-60
2022/03/05 07:53:52;;;;;;;82.22;52.95;;;16.60;47.20;;;;;;5077000;28;20104;-58
2022/03/05 07:56:19;;;;;;;89.60;57.15;;;17.00;45.20;;;;;;5076847;28;20104;-57
2022/03/05 07:58:45;;;;;;;87.13;54.17;;;16.70;44.30;;;;;;5076806;28;20051;-62
2022/03/05 08:01:10;;;;;;;75.75;51.53;;;17.30;43.30;;;;;;5076757;28;20483;-60
2022/03/05 08:03:36;;;;;;;64.40;43.97;;;17.70;42.30;;;;;;5076640;28;20021;-57
2022/03/05 08:06:02;;;;;;;53.28;37.97;;;18.10;38.60;;;;;;5076589;28;20021;-60
2022/03/05 08:08:27;;;;;;;46.38;32.95;;;18.50;40.30;;;;;;5076514;28;20074;-61
2022/03/05 08:10:54;;;;;;;40.20;28.13;;;18.70;39.10;;;;;;5076521;28;20020;-63
2022/03/05 08:13:20;;;;;;;34.08;25.15;;;19.50;37.70;;;;;;5076498;28;20092;-61
2022/03/05 08:15:46;;;;;;;32.45;24.33;;;19.80;36.50;;;;;;5076160;28;20052;-63
2022/03/05 08:18:11;;;;;;;44.25;33.10;;;19.70;35.50;;;;;;5076282;28;20032;-64
2022/03/05 08:20:38;;;;;;;50.00;34.58;;;19.20;35.70;;;;;;5076366;28;20069;-62
2022/03/05 08:23:04;;;;;;;53.08;36.10;;;18.30;36.60;;;;;;5076181;28;20025;-62
2022/03/05 08:25:30;;;;;;;55.83;38.25;;;17.50;36.30;;;;;;5076219;28;20024;-58
2022/03/05 08:27:57;;;;;;;45.63;32.63;;;16.30;37.80;;;;;;5076204;28;20038;-58
2022/03/05 08:30:23;;;;;;;40.45;29.13;;;14.80;38.80;;;;;;5076274;28;20024;-57
2022/03/05 08:32:49;;;;;;;50.95;36.05;;;14.00;40.90;;;;;;5075976;28;20450;-59
2022/03/05 08:35:15;;;;;;;46.58;30.67;;;14.10;41.70;;;;;;5075903;28;20045;-62
2022/03/05 08:37:41;;;;;;;41.55;28.92;;;14.20;41.70;;;;;;5076032;28;20028;-60
2022/03/05 08:40:09;;;;;;;45.05;28.98;;;15.40;41.00;;;;;;5075959;28;20529;-56
2022/03/05 08:42:35;;;;;;;50.38;33.20;;;16.80;39.40;;;;;;5075951;28;20074;-60
2022/03/05 08:45:05;;;;;;;44.85;30.63;;;17.70;37.80;;;;;;5075749;28;20032;-60
2022/03/05 08:47:32;;;;;;;64.90;41.08;;;18.00;36.60;;;;;;5075771;28;20047;-63
2022/03/05 08:49:58;;;;;;;41.80;29.60;;;18.00;36.20;;;;;;5075942;28;20378;-60
2022/03/05 08:52:23;;;;;;;38.03;26.85;;;17.60;36.10;;;;;;5074492;28;20021;-64
2022/03/05 08:54:49;;;;;;;42.88;28.33;;;17.10;36.30;;;;;;5075660;28;20052;-59
2022/03/05 08:57:15;;;;;;;34.03;24.90;;;17.30;35.20;;;;;;5075838;28;20027;-64
2022/03/05 08:59:41;;;;;;;34.33;24.42;;;17.00;36.70;;;;;;5075430;28;20024;-60
2022/03/05 09:02:08;;;;;;;37.00;25.30;;;16.60;35.90;;;;;;5075570;28;20016;-62
2022/03/05 09:04:34;;;;;;;29.33;22.25;;;16.10;36.00;;;;;;5075593;28;20054;-60
2022/03/05 09:07:00;;;;;;;26.40;20.33;;;15.70;37.20;;;;;;5075500;28;20457;-63
2022/03/05 09:09:26;;;;;;;27.40;21.05;;;16.00;36.60;;;;;;5075374;28;20017;-62
2022/03/05 09:11:51;;;;;;;30.88;21.73;;;15.60;37.30;;;;;;5075692;28;20017;-60
2022/03/05 09:14:17;;;;;;;28.70;20.42;;;15.20;38.30;;;;;;5075209;28;20021;-62
2022/03/05 09:16:43;;;;;;;32.67;22.58;;;14.70;39.10;;;;;;5075302;28;20466;-60
2022/03/05 09:19:09;;;;;;;33.53;24.25;;;14.10;40.40;;;;;;5075371;28;20017;-61
2022/03/05 09:21:36;;;;;;;33.88;24.05;;;13.40;39.20;;;;;;5075314;28;20533;-64
2022/03/05 09:24:03;;;;;;;49.65;29.77;;;13.20;39.90;;;;;;5075158;28;20039;-59
2022/03/05 09:26:29;;;;;;;40.17;27.20;;;13.20;39.00;;;;;;5075345;28;20036;-62
2022/03/05 09:28:54;;;;;;;35.45;24.60;;;12.90;38.80;;;;;;5074987;28;20513;-63
2022/03/05 09:31:20;;;;;;;29.35;20.98;;;12.40;40.30;;;;;;5075321;28;20058;-60
2022/03/05 09:33:46;;;;;;;26.35;18.80;;;12.50;40.60;;;;;;5074987;28;20056;-57
2022/03/05 09:36:12;;;;;;;24.70;17.73;;;12.40;40.40;;;;;;5074849;28;20132;-59
2022/03/05 09:38:38;;;;;;;25.23;18.63;;;12.30;40.00;;;;;;5074927;28;20024;-58
2022/03/05 09:41:05;;;;;;;28.25;19.48;;;11.90;41.80;;;;;;5074787;28;20024;-57
2022/03/05 09:43:31;;;;;;;28.33;19.95;;;11.90;41.70;;;;;;5074618;28;20387;-61
2022/03/05 09:46:00;;;;;;;25.00;19.23;;;11.80;41.80;;;;;;5074772;28;20020;-62
2022/03/05 09:48:27;;;;;;;29.45;20.17;;;11.90;42.30;;;;;;5074626;28;20035;-61
2022/03/05 09:50:53;;;;;;;30.00;20.25;;;12.10;42.10;;;;;;5074751;28;20074;-57
2022/03/05 09:53:20;;;;;;;30.52;20.98;;;12.00;41.40;;;;;;5074563;28;20021;-60
2022/03/05 09:55:49;;;;;;;25.33;19.15;;;11.30;42.10;;;;;;5074524;28;20029;-59
2022/03/05 09:58:14;;;;;;;25.83;18.30;;;11.30;42.10;;;;;;5074315;28;20025;-54
2022/03/05 10:00:40;;;;;;;25.25;18.33;;;11.70;41.80;;;;;;5074469;28;20479;-62
2022/03/05 10:03:07;;;;;;;28.98;19.13;;;12.40;42.10;;;;;;5073892;28;20040;-59
2022/03/05 10:05:34;;;;;;;25.65;17.52;;;12.70;40.50;;;;;;5074393;28;20020;-59
2022/03/05 10:08:15;;;;;;;24.35;17.45;;;12.50;40.50;;;;;;5074222;28;20036;-59
2022/03/05 10:10:55;;;;;;;21.48;15.95;;;12.10;40.70;;;;;;5074273;28;20356;-57
2022/03/05 10:13:22;;;;;;;21.65;15.50;;;11.80;40.80;;;;;;5074079;28;20375;-60
2022/03/05 10:15:49;;;;;;;19.67;14.65;;;11.80;39.50;;;;;;5074127;28;20017;-63
2022/03/05 10:18:15;;;;;;;20.98;15.52;;;11.90;40.00;;;;;;5074100;28;20048;-58
2022/03/05 10:20:52;;;;;;;20.88;15.40;;;12.30;40.10;;;;;;5074120;28;20493;-57
2022/03/05 10:23:19;;;;;;;18.70;14.15;;;12.80;40.00;;;;;;5074012;28;20036;-63
2022/03/05 10:25:48;;;;;;;22.85;16.63;;;13.00;39.70;;;;;;5074030;28;20052;-59
2022/03/05 10:28:16;;;;;;;21.40;14.77;;;12.70;38.50;;;;;;5073918;28;20028;-61
2022/03/05 10:31:07;;;;;;;17.02;13.80;;;12.30;39.00;;;;;;5074083;28;20052;-61
2022/03/05 10:33:44;;;;;;;19.35;14.70;;;11.90;38.80;;;;;;5073751;28;20024;-61
2022/03/05 10:36:20;;;;;;;19.60;14.73;;;12.00;39.80;;;;;;5073437;28;20053;-59
2022/03/05 10:39:02;;;;;;;21.75;15.35;;;12.00;39.70;;;;;;5073945;28;20025;-62
2022/03/05 10:41:40;;;;;;;20.95;15.05;;;12.50;40.30;;;;;;5073557;28;20024;-61
2022/03/05 10:44:13;;;;;;;19.55;14.32;;;13.00;40.80;;;;;;5073606;28;20024;-57
2022/03/05 10:46:46;;;;;;;25.67;17.50;;;13.50;41.70;;;;;;5073704;28;20033;-59
2022/03/05 10:49:24;;;;;;;20.23;15.15;;;13.60;37.40;;;;;;5073574;28;20124;-57
2022/03/05 10:52:04;;;;;;;21.85;15.88;;;13.80;38.70;;;;;;5073565;28;20044;-60
2022/03/05 10:54:31;;;;;;;21.58;17.23;;;13.90;39.10;;;;;;5073555;28;20024;-55
2022/03/05 10:57:05;;;;;;;18.13;14.55;;;14.30;39.90;;;;;;5073211;28;20486;-56
2022/03/05 10:59:35;;;;;;;24.05;16.48;;;14.50;37.00;;;;;;5073520;28;20023;-59
2022/03/05 11:02:02;;;;;;;20.17;15.32;;;14.50;38.30;;;;;;5073344;28;20085;-60
2022/03/05 11:04:31;;;;;;;19.40;14.90;;;15.00;37.80;;;;;;5073398;28;20080;-59
2022/03/05 11:06:58;;;;;;;22.40;15.85;;;15.30;36.10;;;;;;5073304;28;20394;-61
2022/03/05 11:09:25;;;;;;;18.42;14.82;;;15.50;36.40;;;;;;5073096;28;20012;-61
2022/03/05 11:11:52;;;;;;;23.65;16.55;;;15.80;36.90;;;;;;5073516;28;20051;-57
2022/03/05 11:14:18;;;;;;;24.85;17.58;;;15.90;35.80;;;;;;5073209;28;20111;-60
2022/03/05 11:16:44;;;;;;;18.77;14.32;;;16.00;37.90;;;;;;5072652;28;20530;-59
2022/03/05 11:19:11;;;;;;;17.85;14.73;;;16.10;37.50;;;;;;5073154;28;20493;-58
2022/03/05 11:21:36;;;;;;;28.13;19.77;;;16.10;36.60;;;;;;5073275;28;20025;-61
2022/03/05 11:24:05;;;;;;;23.00;17.58;;;16.30;36.20;;;;;;5073068;28;20067;-58
2022/03/05 11:26:32;;;;;;;21.02;16.33;;;16.30;35.80;;;;;;5073070;28;20029;-64
2022/03/05 11:28:59;;;;;;;22.05;16.33;;;16.40;37.90;;;;;;5073089;28;20382;-64
2022/03/05 11:31:33;;;;;;;20.88;16.55;;;16.30;34.40;;;;;;5073062;28;20520;-61
2022/03/05 11:34:20;;;;;;;19.80;15.98;;;16.40;35.90;;;;;;5073065;28;20040;-63
2022/03/05 11:36:48;;;;;;;18.45;15.18;;;16.50;36.90;;;;;;5072816;28;20045;-63
2022/03/05 11:39:16;;;;;;;19.83;15.75;;;16.30;35.70;;;;;;5072853;28;20059;-60
2022/03/05 11:41:57;;;;;;;19.98;16.73;;;15.80;35.70;;;;;;5073011;28;20046;-60
2022/03/05 11:44:25;;;;;;;19.77;15.90;;;15.20;34.20;;;;;;5073133;28;20074;-60
2022/03/05 11:47:20;;;;;;;20.17;16.33;;;14.90;34.70;;;;;;5072997;28;20028;-61
2022/03/05 11:49:56;;;;;;;23.27;17.75;;;14.60;35.00;;;;;;5072973;28;20020;-57
2022/03/05 11:52:22;;;;;;;21.13;16.65;;;14.90;37.30;;;;;;5072888;28;20023;-57
2022/03/05 11:55:19;;;;;;;20.48;16.00;;;14.90;36.00;;;;;;5072604;28;20025;-58
2022/03/05 11:57:51;;;;;;;22.30;16.77;;;14.90;35.50;;;;;;5072731;28;20013;-60
2022/03/05 12:00:28;;;;;;;23.17;17.55;;;15.30;36.40;;;;;;5072903;28;20071;-62
2022/03/05 12:02:55;;;;;;;20.92;15.85;;;15.40;36.70;;;;;;5072944;28;20016;-62
2022/03/05 12:05:33;;;;;;;21.05;17.13;;;15.40;36.20;;;;;;5072732;28;20031;-63
2022/03/05 12:07:59;;;;;;;25.13;18.05;;;15.10;35.30;;;;;;5072486;28;20483;-61
2022/03/05 12:10:25;;;;;;;22.77;17.48;;;14.90;34.60;;;;;;5072664;28;20056;-62
2022/03/05 12:12:56;;;;;;;23.20;17.27;;;14.50;35.80;;;;;;5072709;28;20024;-58
2022/03/05 12:15:39;;;;;;;22.88;17.38;;;14.40;37.30;;;;;;5072759;28;20111;-62
2022/03/05 12:18:14;;;;;;;24.73;17.90;;;14.30;38.70;;;;;;5072768;28;20024;-63
2022/03/05 12:20:43;;;;;;;21.40;17.00;;;14.30;37.50;;;;;;5072845;28;20115;-64
2022/03/05 12:23:11;;;;;;;23.50;18.25;;;14.10;37.30;;;;;;5072342;28;20032;-60
2022/03/05 12:25:39;;;;;;;23.13;17.50;;;14.00;37.50;;;;;;5072659;28;20103;-62